| time (UTC) | temp F | wind direction | speed MPH | gust MPH | rain 1hr in | rain 24hr in | rain mn in | humidity % | barometer mb |
| 20260507234642 | 51 | 355 | 0.0 | 1.0 | 0.00 | 0.00 | 0.00 | 43 | 1009.1 |
| 20260507234138 | 51 | 27 | 1.0 | 4.0 | 0.00 | 0.00 | 0.00 | 42 | 1009.3 |
| 20260507233635 | 51 | 16 | 0.0 | 1.0 | 0.00 | 0.00 | 0.00 | 42 | 1009.4 |
| 20260507233134 | 51 | 25 | 0.0 | 1.0 | 0.00 | 0.00 | 0.00 | 42 | 1009.2 |
| 20260507232629 | 51 | 357 | 1.0 | 3.0 | 0.00 | 0.00 | 0.00 | 41 | 1009.2 |
| 20260507232127 | 51 | 26 | 0.0 | 6.0 | 0.00 | 0.00 | 0.00 | 41 | 1009.2 |
| 20260507231623 | 52 | 22 | 0.0 | 2.0 | 0.00 | 0.00 | 0.00 | 41 | 1009.1 |
| 20260507231121 | 52 | 346 | 1.0 | 2.0 | 0.00 | 0.00 | 0.00 | 40 | 1009.0 |
| 20260507230617 | 52 | 63 | 2.0 | 7.0 | 0.00 | 0.00 | 0.00 | 40 | 1009.1 |
| 20260507230114 | 52 | 11 | 1.0 | 4.0 | 0.00 | 0.00 | 0.00 | 40 | 1009.0 |
| 20260507225608 | 53 | 76 | 3.0 | 10.0 | 0.00 | 0.00 | 0.00 | 39 | 1009.0 |
| 20260507225105 | 53 | 20 | 0.0 | 3.0 | 0.00 | 0.00 | 0.00 | 40 | 1009.1 |
| 20260507224600 | 53 | 21 | 0.0 | 1.0 | 0.00 | 0.00 | 0.00 | 40 | 1008.9 |
| 20260507224057 | 53 | 38 | 2.0 | 8.0 | 0.00 | 0.00 | 0.00 | 40 | 1009.1 |
| 20260507223553 | 54 | 39 | 1.0 | 2.0 | 0.00 | 0.00 | 0.00 | 38 | 1009.0 |
| 20260507223051 | 53 | 21 | 0.0 | 0.0 | 0.00 | 0.00 | 0.00 | 41 | 1009.0 |
| 20260507222548 | 52 | 71 | 2.0 | 2.0 | 0.00 | 0.00 | 0.00 | 41 | 1009.2 |
| 20260507222044 | 52 | 149 | 2.0 | 3.0 | 0.00 | 0.00 | 0.00 | 41 | 1009.1 |
| 20260507221540 | 52 | 29 | 1.0 | 3.0 | 0.00 | 0.00 | 0.00 | 41 | 1009.2 |
| 20260507221037 | 52 | 354 | 1.0 | 3.0 | 0.00 | 0.00 | 0.00 | 40 | 1009.1 |
| 20260507220534 | 52 | 222 | 2.0 | 3.0 | 0.00 | 0.00 | 0.00 | 40 | 1009.1 |
| 20260507220032 | 52 | 242 | 1.0 | 3.0 | 0.00 | 0.00 | 0.00 | 40 | 1009.0 |
| 20260507215528 | 53 | 36 | 2.0 | 2.0 | 0.00 | 0.00 | 0.00 | 39 | 1009.2 |
| 20260507215026 | 53 | 155 | 2.0 | 2.0 | 0.00 | 0.00 | 0.00 | 39 | 1009.0 |
| 20260507214523 | 52 | 80 | 2.0 | 3.0 | 0.00 | 0.00 | 0.00 | 40 | 1009.1 |
| 20260507214019 | 52 | 123 | 2.0 | 8.0 | 0.00 | 0.00 | 0.00 | 40 | 1009.2 |
| 20260507213515 | 52 | 40 | 2.0 | 3.0 | 0.00 | 0.00 | 0.00 | 40 | 1009.0 |
| 20260507213013 | 52 | 185 | 1.0 | 6.0 | 0.00 | 0.00 | 0.00 | 41 | 1009.0 |
| 20260507212508 | 51 | 61 | 1.0 | 4.0 | 0.00 | 0.00 | 0.00 | 41 | 1008.9 |
| 20260507212005 | 52 | 129 | 6.0 | 9.0 | 0.00 | 0.00 | 0.00 | 40 | 1008.8 |
| 20260507211502 | 51 | 92 | 3.0 | 3.0 | 0.00 | 0.00 | 0.00 | 40 | 1008.9 |
| 20260507210958 | 52 | 44 | 2.0 | 6.0 | 0.00 | 0.00 | 0.00 | 41 | 1008.8 |
| 20260507210455 | 53 | 152 | 3.0 | 7.0 | 0.00 | 0.00 | 0.00 | 39 | 1008.8 |
| 20260507205952 | 55 | 28 | 5.0 | 9.0 | 0.00 | 0.00 | 0.00 | 37 | 1008.8 |
| 20260507205449 | 54 | 320 | 2.0 | 4.0 | 0.00 | 0.00 | 0.00 | 38 | 1008.8 |
| 20260507204945 | 54 | 113 | 3.0 | 10.0 | 0.00 | 0.00 | 0.00 | 38 | 1008.8 |
| 20260507204441 | 54 | 71 | 1.0 | 2.0 | 0.00 | 0.00 | 0.00 | 38 | 1008.7 |
| 20260507203939 | 54 | 76 | 6.0 | 10.0 | 0.00 | 0.00 | 0.00 | 38 | 1008.7 |
| 20260507203437 | 54 | 86 | 5.0 | 7.0 | 0.00 | 0.00 | 0.00 | 37 | 1008.8 |
| 20260507202933 | 55 | 84 | 5.0 | 9.0 | 0.00 | 0.00 | 0.00 | 36 | 1008.5 |
| 20260507202430 | 55 | 165 | 3.0 | 4.0 | 0.00 | 0.00 | 0.00 | 36 | 1008.6 |
| 20260507201926 | 55 | 74 | 2.0 | 4.0 | 0.00 | 0.00 | 0.00 | 39 | 1008.7 |
| 20260507201421 | 55 | 25 | 2.0 | 2.0 | 0.00 | 0.00 | 0.00 | 39 | 1008.7 |
| 20260507200919 | 55 | 111 | 4.0 | 6.0 | 0.00 | 0.00 | 0.00 | 39 | 1008.7 |
| 20260507200414 | 55 | 34 | 2.0 | 3.0 | 0.00 | 0.00 | 0.00 | 40 | 1008.5 |
| 20260507195910 | 55 | 34 | 2.0 | 3.0 | 0.00 | 0.00 | 0.00 | 40 | 1008.6 |
| 20260507195408 | 54 | 236 | 4.0 | 6.0 | 0.00 | 0.00 | 0.00 | 40 | 1008.7 |
| 20260507194904 | 54 | 20 | 2.0 | 3.0 | 0.00 | 0.00 | 0.00 | 40 | 1008.6 |
| 20260507194401 | 55 | 31 | 1.0 | 3.0 | 0.00 | 0.00 | 0.00 | 37 | 1008.6 |
| 20260507193857 | 55 | 22 | 2.0 | 3.0 | 0.00 | 0.00 | 0.00 | 36 | 1008.5 |
| 20260507193355 | 55 | 51 | 1.0 | 2.0 | 0.00 | 0.00 | 0.00 | 38 | 1008.6 |
| 20260507192851 | 55 | 342 | 6.0 | 10.0 | 0.00 | 0.00 | 0.00 | 38 | 1008.8 |
| 20260507192347 | 56 | 32 | 1.0 | 7.0 | 0.00 | 0.00 | 0.00 | 37 | 1008.7 |
| 20260507191844 | 54 | 55 | 2.0 | 4.0 | 0.00 | 0.00 | 0.00 | 39 | 1008.6 |
| 20260507191340 | 54 | 65 | 4.0 | 7.0 | 0.00 | 0.00 | 0.00 | 39 | 1008.9 |
| 20260507190837 | 53 | 50 | 1.0 | 6.0 | 0.00 | 0.00 | 0.00 | 39 | 1008.7 |
| 20260507190335 | 53 | 137 | 6.0 | 10.0 | 0.00 | 0.00 | 0.00 | 39 | 1008.7 |
| 20260507185834 | 52 | 45 | 4.0 | 8.0 | 0.00 | 0.00 | 0.00 | 42 | 1008.9 |
| 20260507185330 | 52 | 340 | 4.0 | 7.0 | 0.00 | 0.00 | 0.00 | 42 | 1008.8 |
| 20260507184827 | 52 | 129 | 5.0 | 10.0 | 0.00 | 0.00 | 0.00 | 41 | 1008.7 |
| 20260507184326 | 53 | 6 | 1.0 | 4.0 | 0.00 | 0.00 | 0.00 | 39 | 1008.7 |
| 20260507183822 | 52 | 27 | 2.0 | 8.0 | 0.00 | 0.00 | 0.00 | 39 | 1008.7 |
| 20260507183319 | 52 | 64 | 5.0 | 9.0 | 0.00 | 0.00 | 0.00 | 38 | 1008.6 |
| 20260507182817 | 51 | 124 | 2.0 | 7.0 | 0.00 | 0.00 | 0.00 | 39 | 1008.8 |
| 20260507182312 | 52 | 222 | 3.0 | 6.0 | 0.00 | 0.00 | 0.00 | 38 | 1008.6 |
| 20260507181808 | 53 | 50 | 3.0 | 6.0 | 0.00 | 0.00 | 0.00 | 37 | 1008.6 |
| 20260507181304 | 52 | 305 | 4.0 | 7.0 | 0.00 | 0.00 | 0.00 | 40 | 1008.4 |
| 20260507180801 | 51 | 131 | 7.0 | 9.0 | 0.00 | 0.00 | 0.00 | 40 | 1008.5 |
| 20260507180259 | 51 | 131 | 7.0 | 9.0 | 0.00 | 0.00 | 0.00 | 40 | 1008.6 |
| 20260507175754 | 52 | 35 | 6.0 | 10.0 | 0.00 | 0.00 | 0.00 | 39 | 1008.4 |
| 20260507175251 | 52 | 338 | 5.0 | 7.0 | 0.00 | 0.00 | 0.00 | 39 | 1008.3 |
| 20260507174748 | 52 | 109 | 5.0 | 8.0 | 0.00 | 0.00 | 0.00 | 40 | 1008.6 |
| 20260507174246 | 52 | 340 | 3.0 | 4.0 | 0.00 | 0.00 | 0.00 | 40 | 1008.4 |
| 20260507173744 | 52 | 147 | 7.0 | 13.0 | 0.00 | 0.00 | 0.00 | 39 | 1008.4 |
| 20260507173241 | 52 | 40 | 2.0 | 4.0 | 0.00 | 0.00 | 0.00 | 41 | 1008.4 |
| 20260507172737 | 52 | 68 | 6.0 | 8.0 | 0.00 | 0.00 | 0.00 | 40 | 1008.7 |
| 20260507172234 | 54 | 131 | 3.0 | 10.0 | 0.00 | 0.00 | 0.00 | 38 | 1008.5 |
| 20260507171734 | 54 | 131 | 3.0 | 10.0 | 0.00 | 0.00 | 0.00 | 38 | 1008.3 |
| 20260507171232 | 54 | 62 | 1.0 | 2.0 | 0.00 | 0.00 | 0.00 | 38 | 1008.6 |
| 20260507170729 | 53 | 13 | 5.0 | 8.0 | 0.00 | 0.00 | 0.00 | 38 | 1008.7 |
| 20260507170225 | 52 | 72 | 3.0 | 10.0 | 0.00 | 0.00 | 0.00 | 40 | 1008.6 |
| 20260507165721 | 52 | 94 | 2.0 | 6.0 | 0.00 | 0.00 | 0.00 | 40 | 1008.6 |
| 20260507165217 | 52 | 93 | 2.0 | 4.0 | 0.00 | 0.00 | 0.00 | 39 | 1008.7 |
| 20260507164713 | 52 | 85 | 4.0 | 10.0 | 0.00 | 0.00 | 0.00 | 40 | 1008.7 |
| 20260507164211 | 53 | 140 | 8.0 | 11.0 | 0.00 | 0.00 | 0.00 | 39 | 1008.5 |
| 20260507163708 | 53 | 172 | 4.0 | 7.0 | 0.00 | 0.00 | 0.00 | 38 | 1008.6 |
| 20260507163206 | 53 | 156 | 9.0 | 11.0 | 0.00 | 0.00 | 0.00 | 38 | 1008.6 |
| 20260507162701 | 52 | 74 | 5.0 | 8.0 | 0.00 | 0.00 | 0.00 | 41 | 1008.6 |
| 20260507162157 | 53 | 103 | 6.0 | 10.0 | 0.00 | 0.00 | 0.00 | 39 | 1008.8 |
| 20260507161654 | 51 | 195 | 3.0 | 4.0 | 0.00 | 0.00 | 0.00 | 38 | 1008.8 |
| 20260507161150 | 52 | 68 | 5.0 | 8.0 | 0.00 | 0.00 | 0.00 | 38 | 1008.8 |
| 20260507160647 | 52 | 276 | 3.0 | 6.0 | 0.00 | 0.00 | 0.00 | 39 | 1008.7 |
| 20260507160144 | 51 | 51 | 4.0 | 8.0 | 0.00 | 0.00 | 0.00 | 43 | 1008.8 |
| 20260507155639 | 51 | 161 | 6.0 | 14.0 | 0.00 | 0.00 | 0.00 | 45 | 1008.8 |
| 20260507155136 | 51 | 97 | 4.0 | 11.0 | 0.00 | 0.00 | 0.00 | 46 | 1008.8 |
| 20260507154633 | 52 | 70 | 3.0 | 9.0 | 0.00 | 0.00 | 0.00 | 46 | 1009.1 |
| 20260507154130 | 51 | 17 | 3.0 | 7.0 | 0.00 | 0.00 | 0.00 | 48 | 1008.8 |
| 20260507153626 | 51 | 48 | 5.0 | 10.0 | 0.00 | 0.00 | 0.00 | 49 | 1008.8 |
| 20260507153123 | 51 | 25 | 2.0 | 7.0 | 0.00 | 0.00 | 0.00 | 49 | 1008.8 |
| 20260507152619 | 51 | 53 | 3.0 | 6.0 | 0.00 | 0.00 | 0.00 | 48 | 1008.9 |
| 20260507152115 | 50 | 103 | 6.0 | 9.0 | 0.00 | 0.00 | 0.00 | 50 | 1008.8 |
| 20260507151612 | 50 | 85 | 4.0 | 7.0 | 0.00 | 0.00 | 0.00 | 50 | 1008.7 |
| 20260507151109 | 50 | 267 | 4.0 | 11.0 | 0.00 | 0.00 | 0.00 | 51 | 1008.9 |
| 20260507150606 | 50 | 95 | 5.0 | 8.0 | 0.00 | 0.00 | 0.00 | 51 | 1008.8 |
| 20260507145557 | 50 | 90 | 3.0 | 10.0 | 0.00 | 0.00 | 0.00 | 51 | 1008.6 |
| 20260507145056 | 49 | 44 | 3.0 | 6.0 | 0.00 | 0.00 | 0.00 | 51 | 1008.9 |
| 20260507144552 | 49 | 304 | 5.0 | 8.0 | 0.00 | 0.00 | 0.00 | 52 | 1008.8 |
| 20260507144050 | 49 | 350 | 3.0 | 11.0 | 0.00 | 0.00 | 0.00 | 52 | 1008.9 |
| 20260507143546 | 49 | 137 | 4.0 | 7.0 | 0.00 | 0.00 | 0.00 | 52 | 1008.9 |
| 20260507143044 | 49 | 336 | 1.0 | 2.0 | 0.00 | 0.00 | 0.00 | 52 | 1009.0 |
| 20260507142538 | 49 | 335 | 2.0 | 6.0 | 0.00 | 0.00 | 0.00 | 53 | 1008.8 |
| 20260507142036 | 49 | 244 | 1.0 | 2.0 | 0.00 | 0.00 | 0.00 | 53 | 1008.8 |
| 20260507141532 | 49 | 342 | 2.0 | 3.0 | 0.00 | 0.00 | 0.00 | 53 | 1008.9 |
| 20260507141029 | 48 | 106 | 2.0 | 4.0 | 0.00 | 0.00 | 0.00 | 54 | 1008.9 |
| 20260507140526 | 47 | 47 | 2.0 | 9.0 | 0.00 | 0.00 | 0.00 | 55 | 1009.0 |
| 20260507140023 | 47 | 10 | 4.0 | 10.0 | 0.00 | 0.00 | 0.00 | 54 | 1008.9 |
| 20260507135520 | 48 | 3 | 2.0 | 4.0 | 0.00 | 0.00 | 0.00 | 55 | 1008.9 |
| 20260507135017 | 48 | 43 | 1.0 | 3.0 | 0.00 | 0.00 | 0.00 | 55 | 1009.1 |
| 20260507134514 | 48 | 26 | 0.0 | 4.0 | 0.00 | 0.00 | 0.00 | 54 | 1008.9 |
| 20260507134009 | 47 | 28 | 4.0 | 10.0 | 0.00 | 0.00 | 0.00 | 55 | 1008.9 |
| 20260507133505 | 47 | 65 | 2.0 | 7.0 | 0.00 | 0.00 | 0.00 | 55 | 1008.9 |
| 20260507133004 | 47 | 261 | 3.0 | 10.0 | 0.00 | 0.00 | 0.00 | 55 | 1008.9 |
| 20260507132500 | 48 | 352 | 1.0 | 4.0 | 0.00 | 0.00 | 0.00 | 56 | 1009.0 |
| 20260507131956 | 47 | 43 | 4.0 | 8.0 | 0.00 | 0.00 | 0.00 | 56 | 1009.1 |
| 20260507131454 | 47 | 269 | 2.0 | 8.0 | 0.00 | 0.00 | 0.00 | 56 | 1009.1 |
| 20260507130950 | 47 | 6 | 1.0 | 7.0 | 0.00 | 0.00 | 0.00 | 56 | 1009.0 |
| 20260507130447 | 46 | 55 | 4.0 | 8.0 | 0.00 | 0.00 | 0.00 | 57 | 1008.9 |
| 20260507125946 | 46 | 67 | 2.0 | 6.0 | 0.00 | 0.00 | 0.00 | 58 | 1009.2 |
| 20260507125444 | 47 | 135 | 4.0 | 4.0 | 0.00 | 0.00 | 0.00 | 57 | 1009.0 |
| 20260507124941 | 46 | 7 | 1.0 | 3.0 | 0.00 | 0.00 | 0.00 | 58 | 1009.1 |
| 20260507124437 | 46 | 10 | 3.0 | 10.0 | 0.00 | 0.00 | 0.00 | 58 | 1009.2 |
| 20260507123936 | 45 | 17 | 1.0 | 4.0 | 0.00 | 0.00 | 0.00 | 59 | 1009.2 |
| 20260507123433 | 45 | 53 | 4.0 | 4.0 | 0.00 | 0.00 | 0.00 | 58 | 1009.0 |
| 20260507122929 | 45 | 202 | 3.0 | 8.0 | 0.00 | 0.00 | 0.00 | 59 | 1008.7 |
| 20260507122424 | 45 | 3 | 0.0 | 0.0 | 0.00 | 0.00 | 0.00 | 59 | 1009.1 |
| 20260507121921 | 45 | 323 | 1.0 | 2.0 | 0.00 | 0.00 | 0.00 | 60 | 1009.1 |
| 20260507121416 | 44 | 95 | 6.0 | 9.0 | 0.00 | 0.00 | 0.00 | 61 | 1009.1 |
| 20260507120913 | 44 | 95 | 6.0 | 9.0 | 0.00 | 0.00 | 0.00 | 61 | 1009.1 |
| 20260507120409 | 44 | 95 | 6.0 | 9.0 | 0.00 | 0.00 | 0.00 | 61 | 1009.2 |
| 20260507115906 | 44 | 64 | 6.0 | 9.0 | 0.00 | 0.00 | 0.00 | 60 | 1009.2 |
| 20260507115402 | 43 | 338 | 3.0 | 4.0 | 0.00 | 0.00 | 0.00 | 63 | 1009.0 |
| 20260507114857 | 43 | 130 | 2.0 | 7.0 | 0.00 | 0.00 | 0.00 | 63 | 1009.1 |
| 20260507114354 | 43 | 354 | 2.0 | 7.0 | 0.00 | 0.00 | 0.00 | 64 | 1009.1 |
| 20260507113852 | 43 | 321 | 3.0 | 6.0 | 0.00 | 0.00 | 0.00 | 64 | 1009.1 |
| 20260507113349 | 43 | 132 | 1.0 | 7.0 | 0.00 | 0.00 | 0.00 | 65 | 1009.0 |
| 20260507112846 | 43 | 35 | 2.0 | 10.0 | 0.00 | 0.00 | 0.00 | 64 | 1009.2 |
| 20260507112343 | 44 | 20 | 2.0 | 7.0 | 0.00 | 0.00 | 0.00 | 64 | 1009.0 |
| 20260507111841 | 44 | 66 | 2.0 | 4.0 | 0.00 | 0.00 | 0.00 | 65 | 1009.0 |
| 20260507111338 | 44 | 305 | 4.0 | 6.0 | 0.00 | 0.00 | 0.00 | 65 | 1009.0 |
| 20260507110833 | 44 | 14 | 1.0 | 8.0 | 0.00 | 0.00 | 0.00 | 66 | 1008.9 |
| 20260507110330 | 45 | 254 | 4.0 | 4.0 | 0.00 | 0.00 | 0.00 | 77 | 1008.8 |
| 20260507105827 | 45 | 254 | 4.0 | 4.0 | 0.00 | 0.00 | 0.00 | 77 | 1008.7 |
| 20260507105323 | 45 | 0 | 1.0 | 7.0 | 0.00 | 0.00 | 0.00 | 78 | 1008.3 |
| 20260507104820 | 45 | 216 | 1.0 | 1.0 | 0.00 | 0.00 | 0.00 | 79 | 1008.4 |
| 20260507104317 | 45 | 356 | 2.0 | 2.0 | 0.00 | 0.00 | 0.00 | 80 | 1008.4 |
| 20260507103813 | 45 | 159 | 3.0 | 4.0 | 0.00 | 0.00 | 0.00 | 81 | 1008.2 |
| 20260507103309 | 45 | 358 | 2.0 | 4.0 | 0.00 | 0.00 | 0.00 | 82 | 1008.4 |
| 20260507102806 | 45 | 353 | 0.0 | 4.0 | 0.00 | 0.00 | 0.00 | 83 | 1008.2 |
| 20260507102306 | 45 | 344 | 0.0 | 3.0 | 0.00 | 0.00 | 0.00 | 84 | 1008.2 |
| 20260507101759 | 45 | 136 | 4.0 | 6.0 | 0.00 | 0.00 | 0.00 | 84 | 1008.2 |
| 20260507101254 | 45 | 57 | 0.0 | 4.0 | 0.00 | 0.00 | 0.00 | 85 | 1008.6 |
| 20260507100751 | 45 | 37 | 0.0 | 3.0 | 0.00 | 0.00 | 0.00 | 85 | 1008.5 |
| 20260507100250 | 45 | 11 | 0.0 | 3.0 | 0.00 | 0.00 | 0.00 | 86 | 1008.3 |
| 20260507095747 | 45 | 63 | 1.0 | 2.0 | 0.00 | 0.00 | 0.00 | 85 | 1008.3 |
| 20260507095243 | 45 | 1 | 0.0 | 4.0 | 0.00 | 0.00 | 0.00 | 84 | 1008.7 |
| 20260507094741 | 45 | 335 | 1.0 | 2.0 | 0.00 | 0.00 | 0.00 | 83 | 1008.5 |
| 20260507094238 | 45 | 184 | 4.0 | 9.0 | 0.00 | 0.00 | 0.00 | 83 | 1008.4 |
| 20260507093734 | 45 | 287 | 2.0 | 4.0 | 0.00 | 0.00 | 0.00 | 83 | 1008.5 |
| 20260507093233 | 45 | 232 | 3.0 | 4.0 | 0.00 | 0.00 | 0.00 | 84 | 1008.4 |
| 20260507092730 | 45 | 10 | 1.0 | 2.0 | 0.00 | 0.00 | 0.00 | 84 | 1008.3 |
| 20260507092226 | 45 | 58 | 3.0 | 6.0 | 0.00 | 0.00 | 0.00 | 85 | 1008.5 |
| 20260507091723 | 45 | 344 | 1.0 | 3.0 | 0.00 | 0.00 | 0.00 | 85 | 1008.4 |
| 20260507091219 | 45 | 22 | 0.0 | 2.0 | 0.00 | 0.00 | 0.00 | 85 | 1008.3 |
| 20260507090719 | 45 | 359 | 0.0 | 6.0 | 0.00 | 0.00 | 0.00 | 86 | 1008.4 |
| 20260507090216 | 45 | 32 | 1.0 | 3.0 | 0.00 | 0.00 | 0.00 | 86 | 1008.2 |
| 20260507085713 | 45 | 347 | 1.0 | 2.0 | 0.00 | 0.00 | 0.00 | 86 | 1008.3 |
| 20260507085210 | 45 | 353 | 0.0 | 1.0 | 0.00 | 0.00 | 0.00 | 86 | 1008.0 |
| 20260507084707 | 45 | 10 | 1.0 | 2.0 | 0.00 | 0.00 | 0.00 | 86 | 1008.2 |
| 20260507084204 | 45 | 14 | 0.0 | 3.0 | 0.00 | 0.00 | 0.00 | 87 | 1008.2 |
| 20260507083701 | 45 | 345 | 1.0 | 1.0 | 0.00 | 0.00 | 0.00 | 87 | 1008.2 |
| 20260507083157 | 45 | 357 | 1.0 | 2.0 | 0.00 | 0.00 | 0.00 | 87 | 1008.2 |
| 20260507082653 | 45 | 12 | 0.0 | 3.0 | 0.00 | 0.00 | 0.00 | 87 | 1008.3 |
| 20260507082149 | 45 | 14 | 0.0 | 2.0 | 0.00 | 0.00 | 0.00 | 87 | 1008.4 |
| 20260507081646 | 45 | 341 | 1.0 | 3.0 | 0.00 | 0.00 | 0.00 | 87 | 1008.4 |
| 20260507081143 | 45 | 341 | 1.0 | 4.0 | 0.00 | 0.00 | 0.00 | 87 | 1008.5 |
| 20260507080639 | 45 | 5 | 0.0 | 2.0 | 0.00 | 0.00 | 0.00 | 87 | 1008.7 |
| 20260507080137 | 45 | 28 | 1.0 | 3.0 | 0.00 | 0.00 | 0.00 | 87 | 1008.8 |
| 20260507075637 | 45 | 32 | 0.0 | 0.0 | 0.00 | 0.00 | 0.00 | 87 | 1008.7 |
| 20260507075133 | 45 | 347 | 3.0 | 6.0 | 0.00 | 0.00 | 0.00 | 87 | 1008.5 |
| 20260507074630 | 45 | 14 | 1.0 | 2.0 | 0.00 | 0.00 | 0.00 | 86 | 1008.5 |
| 20260507074128 | 45 | 1 | 1.0 | 1.0 | 0.00 | 0.00 | 0.00 | 86 | 1008.7 |
| 20260507073624 | 45 | 165 | 0.0 | 4.0 | 0.00 | 0.00 | 0.00 | 86 | 1008.6 |
| 20260507073121 | 45 | 2 | 0.0 | 4.0 | 0.00 | 0.00 | 0.00 | 86 | 1008.7 |
| 20260507072619 | 45 | 314 | 1.0 | 1.0 | 0.00 | 0.00 | 0.00 | 85 | 1008.6 |
| 20260507072115 | 45 | 28 | 0.0 | 1.0 | 0.00 | 0.00 | 0.00 | 85 | 1008.7 |
| 20260507071613 | 45 | 305 | 1.0 | 1.0 | 0.00 | 0.00 | 0.00 | 84 | 1008.8 |
| 20260507071109 | 45 | 10 | 1.0 | 1.0 | 0.00 | 0.00 | 0.00 | 84 | 1008.5 |
| 20260507070607 | 45 | 19 | 1.0 | 2.0 | 0.00 | 0.00 | 0.00 | 83 | 1008.6 |
| 20260507070104 | 45 | 23 | 1.0 | 2.0 | 0.00 | 0.00 | 0.00 | 83 | 1008.6 |
| 20260507065600 | 45 | 13 | 0.0 | 3.0 | 0.00 | 0.00 | 0.00 | 83 | 1008.7 |
| 20260507065057 | 45 | 83 | 0.0 | 4.0 | 0.00 | 0.00 | 0.00 | 82 | 1008.7 |
| 20260507064555 | 45 | 340 | 1.0 | 3.0 | 0.00 | 0.00 | 0.00 | 83 | 1008.9 |
| 20260507064053 | 45 | 357 | 0.0 | 3.0 | 0.00 | 0.00 | 0.00 | 83 | 1008.7 |
| 20260507063550 | 45 | 90 | 1.0 | 4.0 | 0.00 | 0.00 | 0.00 | 83 | 1008.8 |
| 20260507063047 | 45 | 38 | 1.0 | 2.0 | 0.00 | 0.00 | 0.00 | 83 | 1008.7 |
| 20260507062543 | 45 | 24 | 3.0 | 7.0 | 0.00 | 0.00 | 0.00 | 83 | 1008.7 |
| 20260507062041 | 45 | 4 | 1.0 | 1.0 | 0.00 | 0.00 | 0.00 | 83 | 1008.8 |
| 20260507061539 | 45 | 4 | 0.0 | 1.0 | 0.00 | 0.00 | 0.00 | 83 | 1008.9 |
| 20260507061037 | 45 | 66 | 0.0 | 1.0 | 0.00 | 0.00 | 0.00 | 84 | 1008.7 |
| 20260507060534 | 45 | 3 | 0.0 | 1.0 | 0.00 | 0.00 | 0.00 | 84 | 1009.0 |
| 20260507060031 | 45 | 8 | 0.0 | 4.0 | 0.00 | 0.00 | 0.00 | 84 | 1008.9 |
| 20260507055525 | 45 | 355 | 0.0 | 2.0 | 0.00 | 0.00 | 0.00 | 84 | 1008.8 |
| 20260507055022 | 45 | 243 | 1.0 | 4.0 | 0.00 | 0.00 | 0.00 | 85 | 1009.0 |
| 20260507054518 | 45 | 13 | 2.0 | 3.0 | 0.00 | 0.00 | 0.00 | 85 | 1009.2 |
| 20260507054015 | 45 | 5 | 0.0 | 1.0 | 0.00 | 0.00 | 0.00 | 85 | 1009.2 |
| 20260507053513 | 45 | 6 | 0.0 | 2.0 | 0.00 | 0.00 | 0.00 | 85 | 1009.2 |
| 20260507053011 | 45 | 10 | 0.0 | 1.0 | 0.00 | 0.00 | 0.00 | 86 | 1009.2 |
| 20260507052509 | 45 | 0 | 1.0 | 2.0 | 0.00 | 0.00 | 0.00 | 86 | 1009.2 |
| 20260507052005 | 45 | 9 | 0.0 | 4.0 | 0.00 | 0.00 | 0.00 | 86 | 1009.3 |
| 20260507051503 | 45 | 26 | 0.0 | 0.0 | 0.00 | 0.00 | 0.00 | 86 | 1009.4 |
| 20260507050959 | 45 | 12 | 1.0 | 3.0 | 0.00 | 0.00 | 0.00 | 86 | 1009.5 |
| 20260507050456 | 45 | 11 | 0.0 | 1.0 | 0.00 | 0.00 | 0.00 | 85 | 1009.4 |
| 20260507045953 | 45 | 9 | 0.0 | 1.0 | 0.00 | 0.00 | 0.00 | 85 | 1009.6 |
| 20260507045449 | 45 | 12 | 0.0 | 1.0 | 0.00 | 0.00 | 0.00 | 85 | 1009.8 |
| 20260507044947 | 45 | 17 | 0.0 | 1.0 | 0.00 | 0.00 | 0.00 | 85 | 1009.7 |
| 20260507044443 | 45 | 111 | 0.0 | 1.0 | 0.00 | 0.00 | 0.00 | 85 | 1009.6 |
| 20260507043939 | 45 | 47 | 1.0 | 2.0 | 0.00 | 0.00 | 0.00 | 85 | 1009.9 |
| 20260507043436 | 45 | 332 | 1.0 | 1.0 | 0.00 | 0.00 | 0.00 | 85 | 1009.9 |
| 20260507042932 | 45 | 166 | 1.0 | 2.0 | 0.00 | 0.00 | 0.00 | 85 | 1009.8 |
| 20260507042429 | 45 | 359 | 0.0 | 3.0 | 0.00 | 0.00 | 0.00 | 84 | 1010.0 |
| 20260507041925 | 45 | 41 | 1.0 | 3.0 | 0.00 | 0.00 | 0.00 | 84 | 1010.0 |
| 20260507041422 | 45 | 10 | 0.0 | 1.0 | 0.00 | 0.00 | 0.00 | 85 | 1009.9 |
| 20260507040919 | 45 | 22 | 0.0 | 2.0 | 0.00 | 0.00 | 0.00 | 85 | 1010.1 |
| 20260507040415 | 45 | 16 | 0.0 | 1.0 | 0.00 | 0.00 | 0.00 | 84 | 1010.1 |
| 20260507035911 | 45 | 2 | 0.0 | 1.0 | 0.00 | 0.44 | 0.44 | 84 | 1010.1 |
| 20260507035407 | 45 | 19 | 2.0 | 3.0 | 0.00 | 0.44 | 0.44 | 84 | 1010.0 |
| 20260507034904 | 46 | 4 | 0.0 | 4.0 | 0.00 | 0.44 | 0.44 | 84 | 1010.0 |
| 20260507034401 | 45 | 34 | 1.0 | 2.0 | 0.00 | 0.44 | 0.44 | 84 | 1010.3 |
| 20260507033859 | 45 | 11 | 1.0 | 2.0 | 0.00 | 0.44 | 0.44 | 85 | 1010.2 |
| 20260507033357 | 45 | 19 | 1.0 | 2.0 | 0.00 | 0.44 | 0.44 | 85 | 1010.2 |
| 20260507032853 | 45 | 1 | 0.0 | 1.0 | 0.00 | 0.44 | 0.44 | 85 | 1010.3 |
| 20260507032350 | 45 | 140 | 1.0 | 3.0 | 0.00 | 0.44 | 0.44 | 85 | 1010.3 |
| 20260507031846 | 45 | 25 | 0.0 | 0.0 | 0.00 | 0.44 | 0.44 | 84 | 1010.3 |
| 20260507031343 | 46 | 26 | 0.0 | 0.0 | 0.00 | 0.44 | 0.44 | 82 | 1010.3 |
| 20260507030840 | 46 | 26 | 0.0 | 0.0 | 0.00 | 0.44 | 0.44 | 82 | 1010.4 |
| 20260507030337 | 46 | 26 | 0.0 | 0.0 | 0.00 | 0.44 | 0.44 | 82 | 1010.4 |
| 20260507025834 | 46 | 26 | 0.0 | 0.0 | 0.00 | 0.44 | 0.44 | 82 | 1010.4 |
| 20260507025332 | 46 | 26 | 0.0 | 0.0 | 0.00 | 0.44 | 0.44 | 82 | 1010.4 |
| 20260507024829 | 46 | 26 | 0.0 | 0.0 | 0.00 | 0.44 | 0.44 | 82 | 1010.4 |
| 20260507024326 | 46 | 26 | 0.0 | 0.0 | 0.00 | 0.44 | 0.44 | 82 | 1010.4 |
| 20260507023822 | 46 | 5 | 0.0 | 0.0 | 0.00 | 0.44 | 0.44 | 81 | 1010.4 |
| 20260507023319 | 46 | 9 | 0.0 | 0.0 | 0.00 | 0.44 | 0.44 | 81 | 1010.5 |
| 20260507022816 | 46 | 4 | 0.0 | 0.0 | 0.00 | 0.44 | 0.44 | 80 | 1010.4 |
| 20260507022312 | 46 | 3 | 0.0 | 0.0 | 0.00 | 0.44 | 0.44 | 80 | 1010.6 |
| 20260507021809 | 46 | 4 | 0.0 | 0.0 | 0.00 | 0.44 | 0.44 | 80 | 1010.5 |
| 20260507021304 | 46 | 356 | 0.0 | 0.0 | 0.00 | 0.44 | 0.44 | 80 | 1010.6 |
| 20260507020802 | 46 | 6 | 0.0 | 0.0 | 0.00 | 0.44 | 0.44 | 79 | 1010.8 |
| 20260507020259 | 46 | 18 | 1.0 | 2.0 | 0.00 | 0.44 | 0.44 | 78 | 1010.8 |
| 20260507015756 | 46 | 18 | 1.0 | 2.0 | 0.00 | 0.44 | 0.44 | 78 | 1010.9 |
| 20260507015253 | 46 | 6 | 0.0 | 0.0 | 0.00 | 0.44 | 0.44 | 77 | 1010.8 |
| 20260507014750 | 46 | 6 | 0.0 | 0.0 | 0.00 | 0.44 | 0.44 | 77 | 1010.9 |
| 20260507014246 | 46 | 45 | 1.0 | 1.0 | 0.00 | 0.44 | 0.44 | 77 | 1010.6 |
| 20260507013743 | 46 | 45 | 1.0 | 1.0 | 0.00 | 0.44 | 0.44 | 77 | 1011.1 |
| 20260507013241 | 46 | 336 | 0.0 | 1.0 | 0.00 | 0.44 | 0.44 | 77 | 1011.0 |
| 20260507012738 | 46 | 336 | 0.0 | 1.0 | 0.00 | 0.44 | 0.44 | 77 | 1011.0 |
| 20260507012233 | 46 | 358 | 0.0 | 1.0 | 0.00 | 0.44 | 0.44 | 77 | 1011.1 |
| 20260507011731 | 46 | 358 | 0.0 | 1.0 | 0.00 | 0.44 | 0.44 | 77 | 1011.1 |
| 20260507011228 | 46 | 9 | 0.0 | 0.0 | 0.00 | 0.44 | 0.44 | 77 | 1011.0 |
| 20260507010727 | 46 | 17 | 0.0 | 1.0 | 0.00 | 0.44 | 0.44 | 77 | 1010.8 |
| 20260507010223 | 46 | 9 | 0.0 | 0.0 | 0.00 | 0.44 | 0.44 | 77 | 1010.8 |
| 20260507005721 | 47 | 5 | 0.0 | 2.0 | 0.00 | 0.44 | 0.44 | 77 | 1010.9 |
| 20260507005217 | 47 | 26 | 1.0 | 1.0 | 0.00 | 0.44 | 0.44 | 77 | 1010.8 |
| 20260507004714 | 47 | 28 | 0.0 | 1.0 | 0.00 | 0.44 | 0.44 | 77 | 1010.8 |
| 20260507004212 | 47 | 4 | 1.0 | 2.0 | 0.00 | 0.44 | 0.44 | 77 | 1010.5 |
| 20260507003708 | 47 | 0 | 0.0 | 0.0 | 0.00 | 0.44 | 0.44 | 78 | 1010.6 |
| 20260507003203 | 47 | 23 | 0.0 | 1.0 | 0.00 | 0.44 | 0.44 | 78 | 1010.4 |
| 20260507002659 | 47 | 11 | 0.0 | 2.0 | 0.00 | 0.44 | 0.44 | 78 | 1010.3 |
| 20260507002155 | 47 | 5 | 1.0 | 1.0 | 0.00 | 0.44 | 0.44 | 78 | 1010.2 |
| 20260507001652 | 47 | 15 | 1.0 | 2.0 | 0.00 | 0.44 | 0.44 | 78 | 1010.2 |
| 20260507001150 | 47 | 25 | 0.0 | 1.0 | 0.00 | 0.44 | 0.44 | 77 | 1010.1 |
| 20260507000646 | 47 | 40 | 1.0 | 2.0 | 0.00 | 0.44 | 0.44 | 77 | 1010.0 |
| 20260507000141 | 47 | 40 | 1.0 | 2.0 | 0.00 | 0.44 | 0.44 | 77 | 1010.2 |
| 20260506235639 | 47 | 40 | 1.0 | 2.0 | 0.00 | 0.44 | 0.44 | 77 | 1010.0 |
| 20260506235139 | 47 | 23 | 1.0 | 2.0 | 0.00 | 0.44 | 0.44 | 77 | 1010.1 |